sensor_id;sensor_type;location;lat;lon;timestamp;pressure;altitude;pressure_sealevel;temperature;humidity
33795;BME280;51430;52.242;21.118;2022-08-24T00:01:59;100389.74;;;20.50;98.77
33795;BME280;51430;52.242;21.118;2022-08-24T00:04:29;100391.12;;;20.52;99.03
33795;BME280;51430;52.242;21.118;2022-08-24T00:07:00;100392.31;;;20.52;98.84
33795;BME280;51430;52.242;21.118;2022-08-24T00:09:30;100396.55;;;20.49;98.64
33795;BME280;51430;52.242;21.118;2022-08-24T00:11:59;100398.48;;;20.43;98.64
33795;BME280;51430;52.242;21.118;2022-08-24T00:14:29;100393.92;;;20.41;98.83
33795;BME280;51430;52.242;21.118;2022-08-24T00:16:58;100395.27;;;20.39;98.92
33795;BME280;51430;52.242;21.118;2022-08-24T00:19:27;100388.70;;;20.38;98.84
33795;BME280;51430;52.242;21.118;2022-08-24T00:21:55;100389.44;;;20.33;99.04
33795;BME280;51430;52.242;21.118;2022-08-24T00:24:23;100390.54;;;20.33;99.22
33795;BME280;51430;52.242;21.118;2022-08-24T00:26:52;100389.57;;;20.32;99.23
33795;BME280;51430;52.242;21.118;2022-08-24T00:29:21;100389.86;;;20.28;98.89
33795;BME280;51430;52.242;21.118;2022-08-24T00:31:50;100391.18;;;20.26;99.23
33795;BME280;51430;52.242;21.118;2022-08-24T00:34:18;100389.44;;;20.23;99.27
33795;BME280;51430;52.242;21.118;2022-08-24T00:36:46;100393.39;;;20.22;99.14
33795;BME280;51430;52.242;21.118;2022-08-24T00:39:14;100389.48;;;20.14;99.08
33795;BME280;51430;52.242;21.118;2022-08-24T00:41:44;100388.53;;;20.12;99.26
33795;BME280;51430;52.242;21.118;2022-08-24T00:44:13;100387.71;;;20.08;99.48
33795;BME280;51430;52.242;21.118;2022-08-24T00:47:04;100391.15;;;20.03;99.35
33795;BME280;51430;52.242;21.118;2022-08-24T00:49:39;100389.95;;;19.98;99.47
33795;BME280;51430;52.242;21.118;2022-08-24T00:54:39;100384.91;;;19.88;99.89
33795;BME280;51430;52.242;21.118;2022-08-24T00:57:16;100383.31;;;19.82;100.00
33795;BME280;51430;52.242;21.118;2022-08-24T00:59:55;100387.89;;;19.82;100.00
33795;BME280;51430;52.242;21.118;2022-08-24T01:02:29;100383.20;;;19.83;100.00
33795;BME280;51430;52.242;21.118;2022-08-24T01:05:02;100384.66;;;19.84;100.00
33795;BME280;51430;52.242;21.118;2022-08-24T01:07:52;100385.39;;;19.84;100.00
33795;BME280;51430;52.242;21.118;2022-08-24T01:10:23;100391.58;;;19.83;100.00
33795;BME280;51430;52.242;21.118;2022-08-24T01:12:59;100396.09;;;19.80;100.00
33795;BME280;51430;52.242;21.118;2022-08-24T01:15:29;100398.13;;;19.76;100.00
33795;BME280;51430;52.242;21.118;2022-08-24T01:18:00;100402.33;;;19.74;100.00
33795;BME280;51430;52.242;21.118;2022-08-24T01:20:54;100402.17;;;19.74;100.00
33795;BME280;51430;52.242;21.118;2022-08-24T01:23:42;100397.81;;;19.74;100.00
33795;BME280;51430;52.242;21.118;2022-08-24T01:26:14;100398.08;;;19.74;100.00
33795;BME280;51430;52.242;21.118;2022-08-24T01:28:48;100397.01;;;19.69;100.00
33795;BME280;51430;52.242;21.118;2022-08-24T01:31:21;100403.27;;;19.62;100.00
33795;BME280;51430;52.242;21.118;2022-08-24T01:33:52;100403.91;;;19.60;100.00
33795;BME280;51430;52.242;21.118;2022-08-24T01:36:46;100409.35;;;19.59;100.00
33795;BME280;51430;52.242;21.118;2022-08-24T01:39:19;100409.06;;;19.55;100.00
33795;BME280;51430;52.242;21.118;2022-08-24T01:41:48;100409.00;;;19.55;100.00
33795;BME280;51430;52.242;21.118;2022-08-24T01:44:17;100412.72;;;19.54;100.00
33795;BME280;51430;52.242;21.118;2022-08-24T01:46:48;100416.20;;;19.53;100.00
33795;BME280;51430;52.242;21.118;2022-08-24T01:49:16;100414.12;;;19.53;100.00
33795;BME280;51430;52.242;21.118;2022-08-24T01:51:44;100411.64;;;19.51;100.00
33795;BME280;51430;52.242;21.118;2022-08-24T01:54:14;100412.10;;;19.50;100.00
33795;BME280;51430;52.242;21.118;2022-08-24T01:56:42;100417.08;;;19.50;100.00
33795;BME280;51430;52.242;21.118;2022-08-24T01:59:12;100419.01;;;19.48;100.00
33795;BME280;51430;52.242;21.118;2022-08-24T02:01:45;100420.15;;;19.45;100.00
33795;BME280;51430;52.242;21.118;2022-08-24T02:04:15;100421.61;;;19.39;100.00
33795;BME280;51430;52.242;21.118;2022-08-24T02:06:45;100423.26;;;19.34;100.00
33795;BME280;51430;52.242;21.118;2022-08-24T02:09:13;100430.91;;;19.31;100.00
33795;BME280;51430;52.242;21.118;2022-08-24T02:11:42;100441.70;;;19.28;100.00
33795;BME280;51430;52.242;21.118;2022-08-24T02:14:10;100443.80;;;19.26;100.00
33795;BME280;51430;52.242;21.118;2022-08-24T02:16:41;100442.67;;;19.24;100.00
33795;BME280;51430;52.242;21.118;2022-08-24T02:19:09;100445.38;;;19.30;100.00
33795;BME280;51430;52.242;21.118;2022-08-24T02:21:38;100445.17;;;19.35;100.00
33795;BME280;51430;52.242;21.118;2022-08-24T02:24:07;100446.69;;;19.37;100.00
33795;BME280;51430;52.242;21.118;2022-08-24T02:26:35;100447.17;;;19.39;100.00
33795;BME280;51430;52.242;21.118;2022-08-24T02:29:03;100446.20;;;19.43;100.00
33795;BME280;51430;52.242;21.118;2022-08-24T02:31:32;100446.16;;;19.44;100.00
33795;BME280;51430;52.242;21.118;2022-08-24T02:34:00;100453.23;;;19.43;100.00
33795;BME280;51430;52.242;21.118;2022-08-24T02:36:29;100459.17;;;19.43;100.00
33795;BME280;51430;52.242;21.118;2022-08-24T02:38:58;100458.24;;;19.47;100.00
33795;BME280;51430;52.242;21.118;2022-08-24T02:41:26;100454.82;;;19.49;100.00
33795;BME280;51430;52.242;21.118;2022-08-24T02:43:55;100453.65;;;19.52;100.00
33795;BME280;51430;52.242;21.118;2022-08-24T02:46:27;100454.50;;;19.55;100.00
33795;BME280;51430;52.242;21.118;2022-08-24T02:48:58;100455.20;;;19.57;100.00
33795;BME280;51430;52.242;21.118;2022-08-24T02:51:42;100454.66;;;19.59;100.00
33795;BME280;51430;52.242;21.118;2022-08-24T02:54:14;100453.77;;;19.60;100.00
33795;BME280;51430;52.242;21.118;2022-08-24T02:56:46;100451.73;;;19.63;100.00
33795;BME280;51430;52.242;21.118;2022-08-24T02:59:15;100457.06;;;19.64;100.00
33795;BME280;51430;52.242;21.118;2022-08-24T03:01:44;100453.91;;;19.65;100.00
33795;BME280;51430;52.242;21.118;2022-08-24T03:04:13;100451.92;;;19.65;100.00
33795;BME280;51430;52.242;21.118;2022-08-24T03:06:41;100447.40;;;19.68;100.00
33795;BME280;51430;52.242;21.118;2022-08-24T03:09:10;100443.27;;;19.71;100.00
33795;BME280;51430;52.242;21.118;2022-08-24T03:11:39;100442.80;;;19.74;100.00
33795;BME280;51430;52.242;21.118;2022-08-24T03:14:12;100447.25;;;19.76;100.00
33795;BME280;51430;52.242;21.118;2022-08-24T03:16:41;100447.83;;;19.76;100.00
33795;BME280;51430;52.242;21.118;2022-08-24T03:19:09;100445.48;;;19.77;100.00
33795;BME280;51430;52.242;21.118;2022-08-24T03:21:37;100453.65;;;19.75;100.00
33795;BME280;51430;52.242;21.118;2022-08-24T03:24:06;100457.23;;;19.73;100.00
33795;BME280;51430;52.242;21.118;2022-08-24T03:26:34;100454.62;;;19.71;100.00
33795;BME280;51430;52.242;21.118;2022-08-24T03:29:02;100454.92;;;19.70;100.00
33795;BME280;51430;52.242;21.118;2022-08-24T03:31:30;100455.19;;;19.71;100.00
33795;BME280;51430;52.242;21.118;2022-08-24T03:33:59;100455.61;;;19.73;100.00
33795;BME280;51430;52.242;21.118;2022-08-24T03:36:27;100462.63;;;19.77;100.00
33795;BME280;51430;52.242;21.118;2022-08-24T03:38:55;100460.42;;;19.81;100.00
33795;BME280;51430;52.242;21.118;2022-08-24T03:41:23;100459.23;;;19.84;100.00
33795;BME280;51430;52.242;21.118;2022-08-24T03:43:51;100462.89;;;19.86;100.00
33795;BME280;51430;52.242;21.118;2022-08-24T03:46:26;100467.64;;;19.86;100.00
33795;BME280;51430;52.242;21.118;2022-08-24T03:48:57;100467.33;;;19.83;100.00
33795;BME280;51430;52.242;21.118;2022-08-24T03:51:27;100468.78;;;19.81;100.00
33795;BME280;51430;52.242;21.118;2022-08-24T03:53:57;100472.66;;;19.84;100.00
33795;BME280;51430;52.242;21.118;2022-08-24T03:56:26;100472.38;;;19.88;100.00
33795;BME280;51430;52.242;21.118;2022-08-24T03:58:54;100472.63;;;19.90;100.00
33795;BME280;51430;52.242;21.118;2022-08-24T04:01:23;100479.79;;;19.91;100.00
33795;BME280;51430;52.242;21.118;2022-08-24T04:03:51;100475.14;;;19.91;100.00
33795;BME280;51430;52.242;21.118;2022-08-24T04:06:21;100476.05;;;19.94;100.00
33795;BME280;51430;52.242;21.118;2022-08-24T04:08:50;100476.33;;;20.00;100.00
33795;BME280;51430;52.242;21.118;2022-08-24T04:11:25;100477.50;;;20.06;100.00
33795;BME280;51430;52.242;21.118;2022-08-24T04:13:55;100477.90;;;20.12;100.00
33795;BME280;51430;52.242;21.118;2022-08-24T04:16:24;100482.90;;;20.15;100.00
33795;BME280;51430;52.242;21.118;2022-08-24T04:18:56;100487.80;;;20.19;100.00
33795;BME280;51430;52.242;21.118;2022-08-24T04:21:26;100491.44;;;20.22;100.00
33795;BME280;51430;52.242;21.118;2022-08-24T04:23:56;100496.61;;;20.23;100.00
33795;BME280;51430;52.242;21.118;2022-08-24T04:26:28;100496.70;;;20.29;100.00
33795;BME280;51430;52.242;21.118;2022-08-24T04:29:14;100500.90;;;20.36;100.00
33795;BME280;51430;52.242;21.118;2022-08-24T04:31:43;100500.86;;;20.40;100.00
33795;BME280;51430;52.242;21.118;2022-08-24T04:34:14;100503.66;;;20.45;100.00
33795;BME280;51430;52.242;21.118;2022-08-24T04:36:43;100506.43;;;20.49;100.00
33795;BME280;51430;52.242;21.118;2022-08-24T04:39:12;100507.34;;;20.53;100.00
33795;BME280;51430;52.242;21.118;2022-08-24T04:41:41;100508.76;;;20.58;99.99
33795;BME280;51430;52.242;21.118;2022-08-24T04:44:11;100511.16;;;20.61;99.85
33795;BME280;51430;52.242;21.118;2022-08-24T04:46:39;100513.31;;;20.67;99.83
33795;BME280;51430;52.242;21.118;2022-08-24T04:49:07;100517.38;;;20.72;99.43
33795;BME280;51430;52.242;21.118;2022-08-24T04:51:35;100523.86;;;20.69;99.16
33795;BME280;51430;52.242;21.118;2022-08-24T04:54:05;100527.77;;;20.68;98.86
33795;BME280;51430;52.242;21.118;2022-08-24T04:56:35;100531.48;;;20.69;98.80
33795;BME280;51430;52.242;21.118;2022-08-24T04:59:03;100530.58;;;20.76;98.70
33795;BME280;51430;52.242;21.118;2022-08-24T05:01:32;100528.60;;;20.82;98.51
33795;BME280;51430;52.242;21.118;2022-08-24T05:04:02;100525.05;;;20.89;98.37
33795;BME280;51430;52.242;21.118;2022-08-24T05:06:31;100524.83;;;20.98;98.27
33795;BME280;51430;52.242;21.118;2022-08-24T05:09:00;100521.81;;;21.05;98.16
33795;BME280;51430;52.242;21.118;2022-08-24T05:11:29;100516.28;;;21.12;98.05
33795;BME280;51430;52.242;21.118;2022-08-24T05:13:58;100521.17;;;21.18;97.68
33795;BME280;51430;52.242;21.118;2022-08-24T05:16:26;100519.44;;;21.22;97.73
33795;BME280;51430;52.242;21.118;2022-08-24T05:18:58;100519.31;;;21.28;97.46
33795;BME280;51430;52.242;21.118;2022-08-24T05:21:27;100521.78;;;21.35;97.40
33795;BME280;51430;52.242;21.118;2022-08-24T05:23:55;100524.73;;;21.43;97.02
33795;BME280;51430;52.242;21.118;2022-08-24T05:26:25;100529.23;;;21.53;96.86
33795;BME280;51430;52.242;21.118;2022-08-24T05:28:55;100524.27;;;21.62;96.41
33795;BME280;51430;52.242;21.118;2022-08-24T05:31:26;100530.45;;;21.75;95.86
33795;BME280;51430;52.242;21.118;2022-08-24T05:33:55;100534.77;;;21.88;95.28
33795;BME280;51430;52.242;21.118;2022-08-24T05:36:29;100535.84;;;22.14;94.68
33795;BME280;51430;52.242;21.118;2022-08-24T05:39:04;100538.76;;;22.64;92.37
33795;BME280;51430;52.242;21.118;2022-08-24T05:41:39;100548.34;;;22.87;88.49
33795;BME280;51430;52.242;21.118;2022-08-24T05:44:16;100542.50;;;22.86;88.17
33795;BME280;51430;52.242;21.118;2022-08-24T05:46:44;100539.56;;;23.00;87.93
33795;BME280;51430;52.242;21.118;2022-08-24T05:49:13;100537.53;;;23.31;86.85
33795;BME280;51430;52.242;21.118;2022-08-24T05:51:41;100534.38;;;23.52;85.93
33795;BME280;51430;52.242;21.118;2022-08-24T05:54:10;100533.58;;;23.55;85.23
33795;BME280;51430;52.242;21.118;2022-08-24T05:56:40;100528.66;;;23.52;84.94
33795;BME280;51430;52.242;21.118;2022-08-24T05:59:09;100529.89;;;23.47;85.04
33795;BME280;51430;52.242;21.118;2022-08-24T06:01:37;100529.98;;;23.42;85.05
33795;BME280;51430;52.242;21.118;2022-08-24T06:04:11;100527.91;;;23.40;85.06
33795;BME280;51430;52.242;21.118;2022-08-24T06:06:40;100524.27;;;23.41;84.79
33795;BME280;51430;52.242;21.118;2022-08-24T06:09:10;100522.86;;;23.40;84.71
33795;BME280;51430;52.242;21.118;2022-08-24T06:11:39;100523.70;;;23.49;84.62
33795;BME280;51430;52.242;21.118;2022-08-24T06:14:11;100519.46;;;23.71;84.24
33795;BME280;51430;52.242;21.118;2022-08-24T06:16:42;100525.58;;;24.23;82.44
33795;BME280;51430;52.242;21.118;2022-08-24T06:19:12;100529.64;;;24.75;80.68
33795;BME280;51430;52.242;21.118;2022-08-24T06:21:42;100531.09;;;25.07;79.45
33795;BME280;51430;52.242;21.118;2022-08-24T06:24:12;100530.58;;;25.21;78.12
33795;BME280;51430;52.242;21.118;2022-08-24T06:26:43;100531.18;;;25.27;78.03
33795;BME280;51430;52.242;21.118;2022-08-24T06:29:32;100534.20;;;25.37;77.16
33795;BME280;51430;52.242;21.118;2022-08-24T06:32:01;100532.29;;;25.50;76.54
33795;BME280;51430;52.242;21.118;2022-08-24T06:34:29;100537.02;;;25.63;75.82
33795;BME280;51430;52.242;21.118;2022-08-24T06:36:57;100542.40;;;25.93;74.93
33795;BME280;51430;52.242;21.118;2022-08-24T06:39:26;100544.29;;;26.29;72.94
33795;BME280;51430;52.242;21.118;2022-08-24T06:41:55;100540.13;;;26.48;70.98
33795;BME280;51430;52.242;21.118;2022-08-24T06:44:23;100547.59;;;26.79;70.68
33795;BME280;51430;52.242;21.118;2022-08-24T06:46:51;100554.55;;;27.22;69.39
33795;BME280;51430;52.242;21.118;2022-08-24T06:49:19;100564.57;;;27.32;68.08
33795;BME280;51430;52.242;21.118;2022-08-24T06:51:47;100565.73;;;27.09;67.65
33795;BME280;51430;52.242;21.118;2022-08-24T06:54:18;100570.45;;;26.76;68.42
33795;BME280;51430;52.242;21.118;2022-08-24T06:56:50;100572.69;;;26.59;68.89
33795;BME280;51430;52.242;21.118;2022-08-24T06:59:18;100572.73;;;26.59;69.58
33795;BME280;51430;52.242;21.118;2022-08-24T07:01:47;100573.41;;;26.92;69.16
33795;BME280;51430;52.242;21.118;2022-08-24T07:04:15;100573.81;;;27.50;68.24
33795;BME280;51430;52.242;21.118;2022-08-24T07:06:43;100574.09;;;28.18;66.08
33795;BME280;51430;52.242;21.118;2022-08-24T07:09:11;100583.23;;;28.57;63.44
33795;BME280;51430;52.242;21.118;2022-08-24T07:11:39;100586.45;;;28.68;61.39
33795;BME280;51430;52.242;21.118;2022-08-24T07:14:08;100594.95;;;28.74;61.11
33795;BME280;51430;52.242;21.118;2022-08-24T07:16:36;100592.02;;;28.52;60.61
33795;BME280;51430;52.242;21.118;2022-08-24T07:19:04;100593.54;;;28.03;61.68
33795;BME280;51430;52.242;21.118;2022-08-24T07:21:33;100596.10;;;27.63;63.00
33795;BME280;51430;52.242;21.118;2022-08-24T07:24:01;100592.85;;;27.28;64.31
33795;BME280;51430;52.242;21.118;2022-08-24T07:26:30;100591.44;;;27.18;65.22
33795;BME280;51430;52.242;21.118;2022-08-24T07:29:01;100595.44;;;27.09;65.38
33795;BME280;51430;52.242;21.118;2022-08-24T07:31:37;100595.42;;;26.76;66.09
33795;BME280;51430;52.242;21.118;2022-08-24T07:34:07;100594.97;;;26.85;65.35
33795;BME280;51430;52.242;21.118;2022-08-24T07:36:37;100593.51;;;26.89;66.13
33795;BME280;51430;52.242;21.118;2022-08-24T07:39:11;100594.44;;;27.11;66.80
33795;BME280;51430;52.242;21.118;2022-08-24T07:41:41;100594.30;;;27.19;65.73
33795;BME280;51430;52.242;21.118;2022-08-24T07:44:29;100593.25;;;27.32;66.12
33795;BME280;51430;52.242;21.118;2022-08-24T07:46:58;100592.42;;;27.44;65.55
33795;BME280;51430;52.242;21.118;2022-08-24T07:49:46;100593.77;;;27.55;65.18
33795;BME280;51430;52.242;21.118;2022-08-24T07:52:15;100595.27;;;27.58;64.33
33795;BME280;51430;52.242;21.118;2022-08-24T07:54:43;100593.78;;;27.67;65.04
33795;BME280;51430;52.242;21.118;2022-08-24T07:57:10;100593.92;;;27.95;65.10
33795;BME280;51430;52.242;21.118;2022-08-24T07:59:38;100595.34;;;28.29;64.99
33795;BME280;51430;52.242;21.118;2022-08-24T08:02:07;100597.70;;;28.62;64.64
33795;BME280;51430;52.242;21.118;2022-08-24T08:04:36;100605.70;;;28.92;63.81
33795;BME280;51430;52.242;21.118;2022-08-24T08:07:05;100603.67;;;29.18;63.06
33795;BME280;51430;52.242;21.118;2022-08-24T08:09:38;100608.66;;;29.30;62.23
33795;BME280;51430;52.242;21.118;2022-08-24T08:12:06;100609.13;;;29.45;60.91
33795;BME280;51430;52.242;21.118;2022-08-24T08:14:34;100614.38;;;29.55;60.30
33795;BME280;51430;52.242;21.118;2022-08-24T08:17:03;100610.09;;;29.66;60.37
33795;BME280;51430;52.242;21.118;2022-08-24T08:19:31;100609.42;;;29.83;60.01
33795;BME280;51430;52.242;21.118;2022-08-24T08:21:59;100613.05;;;30.01;60.12
33795;BME280;51430;52.242;21.118;2022-08-24T08:24:46;100610.61;;;30.30;59.98
33795;BME280;51430;52.242;21.118;2022-08-24T08:27:14;100611.70;;;30.50;59.51
33795;BME280;51430;52.242;21.118;2022-08-24T08:29:43;100616.92;;;30.67;58.71
33795;BME280;51430;52.242;21.118;2022-08-24T08:32:12;100619.13;;;30.93;58.36
33795;BME280;51430;52.242;21.118;2022-08-24T08:34:43;100619.72;;;31.24;56.96
33795;BME280;51430;52.242;21.118;2022-08-24T08:37:12;100627.52;;;31.59;56.43
33795;BME280;51430;52.242;21.118;2022-08-24T08:39:41;100633.09;;;31.95;54.77
33795;BME280;51430;52.242;21.118;2022-08-24T08:42:25;100634.05;;;32.41;53.88
33795;BME280;51430;52.242;21.118;2022-08-24T08:50:15;100636.77;;;33.22;51.70
33795;BME280;51430;52.242;21.118;2022-08-24T08:56:01;100641.02;;;32.76;51.63
33795;BME280;51430;52.242;21.118;2022-08-24T09:07:19;100649.33;;;33.15;50.65
33795;BME280;51430;52.242;21.118;2022-08-24T09:21:37;100644.98;;;35.01;46.11
33795;BME280;51430;52.242;21.118;2022-08-24T09:27:07;100645.64;;;35.65;42.84
33795;BME280;51430;52.242;21.118;2022-08-24T09:30:17;100644.52;;;35.77;44.58
33795;BME280;51430;52.242;21.118;2022-08-24T10:01:05;100651.98;;;38.68;37.73
33795;BME280;51430;52.242;21.118;2022-08-24T10:03:50;100654.35;;;38.79;38.20
33795;BME280;51430;52.242;21.118;2022-08-24T10:17:38;100651.67;;;38.42;37.45
33795;BME280;51430;52.242;21.118;2022-08-24T10:23:09;100651.77;;;38.92;37.65
33795;BME280;51430;52.242;21.118;2022-08-24T10:26:50;100646.53;;;39.70;35.86
33795;BME280;51430;52.242;21.118;2022-08-24T10:32:01;100654.51;;;42.09;33.02
33795;BME280;51430;52.242;21.118;2022-08-24T10:40:52;100657.40;;;43.72;31.32
33795;BME280;51430;52.242;21.118;2022-08-24T10:52:36;100648.91;;;39.45;33.23
33795;BME280;51430;52.242;21.118;2022-08-24T10:55:27;100643.67;;;37.96;35.07
33795;BME280;51430;52.242;21.118;2022-08-24T11:00:44;100638.05;;;36.68;37.85
33795;BME280;51430;52.242;21.118;2022-08-24T11:03:15;100632.42;;;36.43;39.09
33795;BME280;51430;52.242;21.118;2022-08-24T11:05:55;100631.38;;;36.45;39.76
33795;BME280;51430;52.242;21.118;2022-08-24T11:08:29;100627.86;;;36.51;40.60
33795;BME280;51430;52.242;21.118;2022-08-24T11:13:35;100629.01;;;36.53;40.77
33795;BME280;51430;52.242;21.118;2022-08-24T11:16:04;100629.56;;;36.50;40.15
33795;BME280;51430;52.242;21.118;2022-08-24T11:18:54;100625.83;;;36.20;39.21
33795;BME280;51430;52.242;21.118;2022-08-24T11:24:10;100626.80;;;35.51;40.31
33795;BME280;51430;52.242;21.118;2022-08-24T11:27:00;100622.02;;;35.64;41.27
33795;BME280;51430;52.242;21.118;2022-08-24T11:29:54;100627.48;;;36.15;40.15
33795;BME280;51430;52.242;21.118;2022-08-24T11:35:07;100627.08;;;36.56;39.91
33795;BME280;51430;52.242;21.118;2022-08-24T11:37:37;100626.91;;;36.23;39.02
33795;BME280;51430;52.242;21.118;2022-08-24T11:40:07;100624.58;;;35.73;39.08
33795;BME280;51430;52.242;21.118;2022-08-24T11:45:24;100635.07;;;37.11;38.19
33795;BME280;51430;52.242;21.118;2022-08-24T11:48:07;100631.96;;;38.89;35.81
33795;BME280;51430;52.242;21.118;2022-08-24T11:51:06;100638.88;;;40.79;35.19
33795;BME280;51430;52.242;21.118;2022-08-24T11:56:32;100646.62;;;42.86;31.60
33795;BME280;51430;52.242;21.118;2022-08-24T12:02:00;100649.05;;;43.89;31.58
33795;BME280;51430;52.242;21.118;2022-08-24T12:08:04;100648.42;;;45.07;30.26
33795;BME280;51430;52.242;21.118;2022-08-24T12:14:00;100651.03;;;45.84;28.70
33795;BME280;51430;52.242;21.118;2022-08-24T12:16:11;100647.23;;;45.40;28.45
33795;BME280;51430;52.242;21.118;2022-08-24T12:18:50;100645.91;;;45.23;29.58
33795;BME280;51430;52.242;21.118;2022-08-24T12:21:27;100646.44;;;45.46;29.27
33795;BME280;51430;52.242;21.118;2022-08-24T12:24:02;100646.42;;;45.48;29.49
33795;BME280;51430;52.242;21.118;2022-08-24T12:26:41;100645.71;;;45.53;28.34
33795;BME280;51430;52.242;21.118;2022-08-24T12:30:10;100639.02;;;45.86;28.41
33795;BME280;51430;52.242;21.118;2022-08-24T12:37:27;100633.98;;;46.35;27.60
33795;BME280;51430;52.242;21.118;2022-08-24T12:40:23;100634.54;;;46.33;27.69
33795;BME280;51430;52.242;21.118;2022-08-24T12:43:06;100634.91;;;46.18;27.48
33795;BME280;51430;52.242;21.118;2022-08-24T12:45:36;100632.58;;;45.52;27.53
33795;BME280;51430;52.242;21.118;2022-08-24T12:48:24;100627.88;;;44.84;28.75
33795;BME280;51430;52.242;21.118;2022-08-24T12:51:08;100628.20;;;45.19;29.39
33795;BME280;51430;52.242;21.118;2022-08-24T12:59:26;100629.65;;;45.50;28.46
33795;BME280;51430;52.242;21.118;2022-08-24T13:02:27;100627.14;;;45.65;27.88
33795;BME280;51430;52.242;21.118;2022-08-24T13:04:59;100630.59;;;45.69;28.23
33795;BME280;51430;52.242;21.118;2022-08-24T13:07:37;100630.36;;;45.78;27.05
33795;BME280;51430;52.242;21.118;2022-08-24T13:10:12;100629.48;;;45.93;27.73
33795;BME280;51430;52.242;21.118;2022-08-24T13:28:38;100624.14;;;45.41;27.37
33795;BME280;51430;52.242;21.118;2022-08-24T13:31:24;100625.25;;;45.35;27.95
33795;BME280;51430;52.242;21.118;2022-08-24T13:50:57;100614.11;;;39.44;45.51
33795;BME280;51430;52.242;21.118;2022-08-24T13:56:58;100601.96;;;32.20;61.69
33795;BME280;51430;52.242;21.118;2022-08-24T14:07:53;100592.68;;;31.07;68.36
33795;BME280;51430;52.242;21.118;2022-08-24T14:13:05;100589.88;;;33.15;60.62
33795;BME280;51430;52.242;21.118;2022-08-24T14:16:08;100580.30;;;34.13;57.58
33795;BME280;51430;52.242;21.118;2022-08-24T14:19:11;100581.19;;;34.97;56.45
33795;BME280;51430;52.242;21.118;2022-08-24T14:21:50;100586.63;;;35.62;54.70
33795;BME280;51430;52.242;21.118;2022-08-24T14:24:26;100590.14;;;36.17;53.39
33795;BME280;51430;52.242;21.118;2022-08-24T14:27:35;100591.65;;;36.77;51.80
33795;BME280;51430;52.242;21.118;2022-08-24T14:35:38;100593.80;;;38.47;48.30
33795;BME280;51430;52.242;21.118;2022-08-24T14:41:14;100594.58;;;39.49;45.83
33795;BME280;51430;52.242;21.118;2022-08-24T14:44:09;100596.30;;;40.19;44.73
33795;BME280;51430;52.242;21.118;2022-08-24T14:52:22;100598.59;;;41.28;42.54
33795;BME280;51430;52.242;21.118;2022-08-24T14:55:27;100600.66;;;41.51;41.82
33795;BME280;51430;52.242;21.118;2022-08-24T15:07:34;100590.61;;;42.26;39.78
33795;BME280;51430;52.242;21.118;2022-08-24T15:10:13;100593.50;;;42.35;39.55
33795;BME280;51430;52.242;21.118;2022-08-24T15:12:46;100593.45;;;42.29;39.24
33795;BME280;51430;52.242;21.118;2022-08-24T15:15:52;100588.24;;;42.20;39.32
33795;BME280;51430;52.242;21.118;2022-08-24T15:18:42;100592.90;;;41.91;39.50
33795;BME280;51430;52.242;21.118;2022-08-24T15:24:10;100595.19;;;41.83;39.66
33795;BME280;51430;52.242;21.118;2022-08-24T15:29:56;100606.19;;;41.56;40.17
33795;BME280;51430;52.242;21.118;2022-08-24T15:35:28;100592.11;;;39.96;42.07
33795;BME280;51430;52.242;21.118;2022-08-24T15:37:56;100589.15;;;40.21;41.90
33795;BME280;51430;52.242;21.118;2022-08-24T15:43:17;100593.67;;;40.77;41.40
33795;BME280;51430;52.242;21.118;2022-08-24T15:45:49;100590.06;;;40.87;40.94
33795;BME280;51430;52.242;21.118;2022-08-24T15:48:20;100588.67;;;40.83;40.72
33795;BME280;51430;52.242;21.118;2022-08-24T15:50:53;100582.69;;;40.55;41.43
33795;BME280;51430;52.242;21.118;2022-08-24T15:53:40;100576.13;;;40.19;41.90
33795;BME280;51430;52.242;21.118;2022-08-24T15:56:26;100571.80;;;39.68;42.96
33795;BME280;51430;52.242;21.118;2022-08-24T15:59:09;100572.46;;;39.12;44.28
33795;BME280;51430;52.242;21.118;2022-08-24T16:01:38;100569.05;;;38.67;45.23
33795;BME280;51430;52.242;21.118;2022-08-24T16:04:41;100575.36;;;38.06;46.12
33795;BME280;51430;52.242;21.118;2022-08-24T16:07:21;100575.79;;;37.32;48.32
33795;BME280;51430;52.242;21.118;2022-08-24T16:10:10;100574.08;;;36.58;49.67
33795;BME280;51430;52.242;21.118;2022-08-24T16:12:38;100574.62;;;35.95;50.67
33795;BME280;51430;52.242;21.118;2022-08-24T16:15:14;100574.27;;;35.44;51.45
33795;BME280;51430;52.242;21.118;2022-08-24T16:17:49;100578.58;;;34.97;52.66
33795;BME280;51430;52.242;21.118;2022-08-24T16:22:56;100579.96;;;34.22;54.64
33795;BME280;51430;52.242;21.118;2022-08-24T16:25:43;100586.66;;;34.03;54.41
33795;BME280;51430;52.242;21.118;2022-08-24T16:30:52;100593.36;;;34.07;53.30
33795;BME280;51430;52.242;21.118;2022-08-24T16:36:14;100609.11;;;33.97;52.68
33795;BME280;51430;52.242;21.118;2022-08-24T16:38:47;100609.98;;;33.71;53.20
33795;BME280;51430;52.242;21.118;2022-08-24T16:41:19;100615.67;;;33.33;54.01
33795;BME280;51430;52.242;21.118;2022-08-24T16:43:48;100612.81;;;32.97;54.76
33795;BME280;51430;52.242;21.118;2022-08-24T16:46:21;100613.38;;;32.72;55.71
33795;BME280;51430;52.242;21.118;2022-08-24T16:48:50;100611.73;;;32.49;56.92
33795;BME280;51430;52.242;21.118;2022-08-24T16:51:21;100602.94;;;32.24;57.75
33795;BME280;51430;52.242;21.118;2022-08-24T16:53:51;100598.25;;;32.02;58.40